sensor_id;sensor_type;location;lat;lon;timestamp;P1;durP1;ratioP1;P2;durP2;ratioP2
31061;SDS011;17724;53.546;9.974;2023-07-29T00:03:37;8.60;;;4.20;;
31061;SDS011;17724;53.546;9.974;2023-07-29T00:07:37;9.10;;;4.50;;
31061;SDS011;17724;53.546;9.974;2023-07-29T00:11:38;8.50;;;4.70;;
31061;SDS011;17724;53.546;9.974;2023-07-29T00:15:38;9.63;;;4.50;;
31061;SDS011;17724;53.546;9.974;2023-07-29T00:19:39;8.40;;;3.90;;
31061;SDS011;17724;53.546;9.974;2023-07-29T00:23:39;8.50;;;4.17;;
31061;SDS011;17724;53.546;9.974;2023-07-29T00:27:40;8.47;;;3.53;;
31061;SDS011;17724;53.546;9.974;2023-07-29T00:31:40;7.80;;;3.10;;
31061;SDS011;17724;53.546;9.974;2023-07-29T00:35:40;8.70;;;3.03;;
31061;SDS011;17724;53.546;9.974;2023-07-29T00:39:41;7.30;;;3.27;;
31061;SDS011;17724;53.546;9.974;2023-07-29T00:43:43;7.93;;;3.43;;
31061;SDS011;17724;53.546;9.974;2023-07-29T00:47:44;7.93;;;4.17;;
31061;SDS011;17724;53.546;9.974;2023-07-29T00:51:44;9.20;;;3.93;;
31061;SDS011;17724;53.546;9.974;2023-07-29T00:55:45;7.50;;;3.37;;
31061;SDS011;17724;53.546;9.974;2023-07-29T00:59:46;7.80;;;3.80;;
31061;SDS011;17724;53.546;9.974;2023-07-29T01:03:46;7.90;;;4.07;;
31061;SDS011;17724;53.546;9.974;2023-07-29T01:08:02;7.90;;;4.20;;
31061;SDS011;17724;53.546;9.974;2023-07-29T01:16:40;8.30;;;4.53;;
31061;SDS011;17724;53.546;9.974;2023-07-29T01:20:45;8.10;;;4.20;;
31061;SDS011;17724;53.546;9.974;2023-07-29T01:24:47;9.00;;;5.33;;
31061;SDS011;17724;53.546;9.974;2023-07-29T01:28:48;7.93;;;3.90;;
31061;SDS011;17724;53.546;9.974;2023-07-29T01:32:53;9.77;;;4.10;;
31061;SDS011;17724;53.546;9.974;2023-07-29T01:36:59;7.60;;;4.20;;
31061;SDS011;17724;53.546;9.974;2023-07-29T01:41:03;8.37;;;4.07;;
31061;SDS011;17724;53.546;9.974;2023-07-29T01:45:06;9.07;;;4.13;;
31061;SDS011;17724;53.546;9.974;2023-07-29T01:49:07;8.80;;;4.67;;
31061;SDS011;17724;53.546;9.974;2023-07-29T01:53:07;11.97;;;6.17;;
31061;SDS011;17724;53.546;9.974;2023-07-29T01:57:08;8.53;;;5.00;;
31061;SDS011;17724;53.546;9.974;2023-07-29T02:01:09;8.30;;;4.90;;
31061;SDS011;17724;53.546;9.974;2023-07-29T02:05:09;8.30;;;4.57;;
31061;SDS011;17724;53.546;9.974;2023-07-29T02:09:10;9.47;;;5.20;;
31061;SDS011;17724;53.546;9.974;2023-07-29T02:13:11;8.07;;;4.00;;
31061;SDS011;17724;53.546;9.974;2023-07-29T02:17:12;8.07;;;4.37;;
31061;SDS011;17724;53.546;9.974;2023-07-29T02:21:12;8.90;;;4.53;;
31061;SDS011;17724;53.546;9.974;2023-07-29T02:25:15;8.70;;;4.90;;
31061;SDS011;17724;53.546;9.974;2023-07-29T02:29:16;8.60;;;5.10;;
31061;SDS011;17724;53.546;9.974;2023-07-29T02:33:16;8.87;;;5.20;;
31061;SDS011;17724;53.546;9.974;2023-07-29T02:37:17;8.50;;;5.63;;
31061;SDS011;17724;53.546;9.974;2023-07-29T02:41:17;9.33;;;5.70;;
31061;SDS011;17724;53.546;9.974;2023-07-29T02:45:18;9.00;;;6.10;;
31061;SDS011;17724;53.546;9.974;2023-07-29T02:49:18;8.67;;;5.47;;
31061;SDS011;17724;53.546;9.974;2023-07-29T02:53:19;10.13;;;6.40;;
31061;SDS011;17724;53.546;9.974;2023-07-29T02:57:20;9.20;;;5.97;;
31061;SDS011;17724;53.546;9.974;2023-07-29T03:01:20;10.67;;;6.40;;
31061;SDS011;17724;53.546;9.974;2023-07-29T03:05:21;9.27;;;6.43;;
31061;SDS011;17724;53.546;9.974;2023-07-29T03:09:21;8.93;;;5.70;;
31061;SDS011;17724;53.546;9.974;2023-07-29T03:13:22;9.50;;;5.73;;
31061;SDS011;17724;53.546;9.974;2023-07-29T03:17:23;9.10;;;6.20;;
31061;SDS011;17724;53.546;9.974;2023-07-29T03:21:23;9.80;;;5.43;;
31061;SDS011;17724;53.546;9.974;2023-07-29T03:25:24;10.00;;;5.80;;
31061;SDS011;17724;53.546;9.974;2023-07-29T03:29:24;9.37;;;5.47;;
31061;SDS011;17724;53.546;9.974;2023-07-29T03:33:25;9.57;;;6.20;;
31061;SDS011;17724;53.546;9.974;2023-07-29T03:37:26;9.20;;;6.13;;
31061;SDS011;17724;53.546;9.974;2023-07-29T03:41:27;9.17;;;6.03;;
31061;SDS011;17724;53.546;9.974;2023-07-29T03:45:27;9.57;;;5.97;;
31061;SDS011;17724;53.546;9.974;2023-07-29T03:49:29;9.93;;;6.43;;
31061;SDS011;17724;53.546;9.974;2023-07-29T03:53:29;8.97;;;6.17;;
31061;SDS011;17724;53.546;9.974;2023-07-29T03:57:30;10.03;;;6.70;;
31061;SDS011;17724;53.546;9.974;2023-07-29T04:01:30;10.57;;;6.67;;
31061;SDS011;17724;53.546;9.974;2023-07-29T04:05:31;10.70;;;7.37;;
31061;SDS011;17724;53.546;9.974;2023-07-29T04:09:32;10.60;;;7.33;;
31061;SDS011;17724;53.546;9.974;2023-07-29T04:13:32;12.83;;;10.33;;
31061;SDS011;17724;53.546;9.974;2023-07-29T04:17:33;12.80;;;10.50;;
31061;SDS011;17724;53.546;9.974;2023-07-29T04:21:33;16.40;;;12.07;;
31061;SDS011;17724;53.546;9.974;2023-07-29T04:25:34;16.57;;;13.90;;
31061;SDS011;17724;53.546;9.974;2023-07-29T04:29:36;19.87;;;16.63;;
31061;SDS011;17724;53.546;9.974;2023-07-29T04:33:36;18.03;;;16.17;;
31061;SDS011;17724;53.546;9.974;2023-07-29T04:37:37;20.17;;;18.07;;
31061;SDS011;17724;53.546;9.974;2023-07-29T04:41:37;22.30;;;20.10;;
31061;SDS011;17724;53.546;9.974;2023-07-29T04:45:42;19.27;;;16.60;;
31061;SDS011;17724;53.546;9.974;2023-07-29T04:49:43;18.53;;;16.63;;
31061;SDS011;17724;53.546;9.974;2023-07-29T04:53:44;19.70;;;16.80;;
31061;SDS011;17724;53.546;9.974;2023-07-29T04:57:44;20.93;;;18.93;;
31061;SDS011;17724;53.546;9.974;2023-07-29T05:01:44;22.20;;;18.17;;
31061;SDS011;17724;53.546;9.974;2023-07-29T05:05:45;19.50;;;17.40;;
31061;SDS011;17724;53.546;9.974;2023-07-29T05:09:47;22.23;;;19.97;;
31061;SDS011;17724;53.546;9.974;2023-07-29T05:13:48;21.80;;;19.07;;
31061;SDS011;17724;53.546;9.974;2023-07-29T05:17:48;22.00;;;19.83;;
31061;SDS011;17724;53.546;9.974;2023-07-29T05:21:49;18.77;;;16.70;;
31061;SDS011;17724;53.546;9.974;2023-07-29T05:25:49;19.50;;;17.40;;
31061;SDS011;17724;53.546;9.974;2023-07-29T05:29:50;18.73;;;16.77;;
31061;SDS011;17724;53.546;9.974;2023-07-29T05:33:50;19.10;;;17.20;;
31061;SDS011;17724;53.546;9.974;2023-07-29T05:37:51;21.20;;;19.10;;
31061;SDS011;17724;53.546;9.974;2023-07-29T05:41:52;20.93;;;18.93;;
31061;SDS011;17724;53.546;9.974;2023-07-29T05:45:52;22.30;;;20.00;;
31061;SDS011;17724;53.546;9.974;2023-07-29T05:49:53;22.90;;;20.57;;
31061;SDS011;17724;53.546;9.974;2023-07-29T05:53:54;23.60;;;20.80;;
31061;SDS011;17724;53.546;9.974;2023-07-29T05:57:55;20.00;;;17.93;;
31061;SDS011;17724;53.546;9.974;2023-07-29T06:01:55;19.70;;;17.57;;
31061;SDS011;17724;53.546;9.974;2023-07-29T06:05:56;18.07;;;16.20;;
31061;SDS011;17724;53.546;9.974;2023-07-29T06:09:57;18.60;;;16.33;;
31061;SDS011;17724;53.546;9.974;2023-07-29T06:13:58;23.40;;;16.50;;
31061;SDS011;17724;53.546;9.974;2023-07-29T06:17:59;20.83;;;15.30;;
31061;SDS011;17724;53.546;9.974;2023-07-29T06:21:59;17.40;;;15.27;;
31061;SDS011;17724;53.546;9.974;2023-07-29T06:26:01;14.27;;;12.37;;
31061;SDS011;17724;53.546;9.974;2023-07-29T06:30:02;15.43;;;13.73;;
31061;SDS011;17724;53.546;9.974;2023-07-29T06:34:03;16.40;;;13.83;;
31061;SDS011;17724;53.546;9.974;2023-07-29T06:38:03;17.20;;;13.43;;
31061;SDS011;17724;53.546;9.974;2023-07-29T06:42:03;15.73;;;13.37;;
31061;SDS011;17724;53.546;9.974;2023-07-29T06:46:04;16.80;;;14.40;;
31061;SDS011;17724;53.546;9.974;2023-07-29T06:50:05;16.97;;;15.20;;
31061;SDS011;17724;53.546;9.974;2023-07-29T06:54:05;15.93;;;12.97;;
31061;SDS011;17724;53.546;9.974;2023-07-29T06:58:06;17.00;;;14.37;;
31061;SDS011;17724;53.546;9.974;2023-07-29T07:02:07;15.83;;;14.13;;
31061;SDS011;17724;53.546;9.974;2023-07-29T07:06:07;17.23;;;15.20;;
31061;SDS011;17724;53.546;9.974;2023-07-29T07:10:08;15.90;;;14.17;;
31061;SDS011;17724;53.546;9.974;2023-07-29T07:14:08;17.10;;;15.30;;
31061;SDS011;17724;53.546;9.974;2023-07-29T07:18:09;16.67;;;14.80;;
31061;SDS011;17724;53.546;9.974;2023-07-29T07:22:09;15.63;;;13.33;;
31061;SDS011;17724;53.546;9.974;2023-07-29T07:26:10;17.43;;;13.73;;
31061;SDS011;17724;53.546;9.974;2023-07-29T07:30:10;14.87;;;12.77;;
31061;SDS011;17724;53.546;9.974;2023-07-29T07:34:11;19.57;;;14.90;;
31061;SDS011;17724;53.546;9.974;2023-07-29T07:38:11;16.47;;;13.80;;
31061;SDS011;17724;53.546;9.974;2023-07-29T07:42:12;15.30;;;13.47;;
31061;SDS011;17724;53.546;9.974;2023-07-29T07:46:12;16.80;;;12.00;;
31061;SDS011;17724;53.546;9.974;2023-07-29T07:50:13;14.63;;;11.90;;
31061;SDS011;17724;53.546;9.974;2023-07-29T07:54:14;13.40;;;11.40;;
31061;SDS011;17724;53.546;9.974;2023-07-29T07:58:15;13.73;;;11.00;;
31061;SDS011;17724;53.546;9.974;2023-07-29T08:02:15;15.80;;;12.27;;
31061;SDS011;17724;53.546;9.974;2023-07-29T08:06:16;14.30;;;11.80;;
31061;SDS011;17724;53.546;9.974;2023-07-29T08:10:16;14.90;;;11.40;;
31061;SDS011;17724;53.546;9.974;2023-07-29T08:14:17;13.03;;;10.80;;
31061;SDS011;17724;53.546;9.974;2023-07-29T08:18:17;13.80;;;11.00;;
31061;SDS011;17724;53.546;9.974;2023-07-29T08:22:18;14.97;;;11.00;;
31061;SDS011;17724;53.546;9.974;2023-07-29T08:26:19;15.60;;;10.93;;
31061;SDS011;17724;53.546;9.974;2023-07-29T08:30:19;13.70;;;11.37;;
31061;SDS011;17724;53.546;9.974;2023-07-29T08:34:20;14.70;;;11.10;;
31061;SDS011;17724;53.546;9.974;2023-07-29T08:38:21;12.90;;;10.30;;
31061;SDS011;17724;53.546;9.974;2023-07-29T08:42:22;14.80;;;11.27;;
31061;SDS011;17724;53.546;9.974;2023-07-29T08:46:23;14.83;;;10.10;;
31061;SDS011;17724;53.546;9.974;2023-07-29T08:50:24;12.87;;;10.33;;
31061;SDS011;17724;53.546;9.974;2023-07-29T08:54:25;13.03;;;10.60;;
31061;SDS011;17724;53.546;9.974;2023-07-29T08:58:26;14.27;;;11.00;;
31061;SDS011;17724;53.546;9.974;2023-07-29T09:02:27;12.60;;;10.13;;
31061;SDS011;17724;53.546;9.974;2023-07-29T09:06:28;14.83;;;11.70;;
31061;SDS011;17724;53.546;9.974;2023-07-29T09:10:28;14.03;;;11.30;;
31061;SDS011;17724;53.546;9.974;2023-07-29T09:14:29;11.50;;;9.70;;
31061;SDS011;17724;53.546;9.974;2023-07-29T09:18:30;13.83;;;10.97;;
31061;SDS011;17724;53.546;9.974;2023-07-29T09:22:30;13.00;;;9.97;;
31061;SDS011;17724;53.546;9.974;2023-07-29T09:26:31;13.80;;;10.73;;
31061;SDS011;17724;53.546;9.974;2023-07-29T09:30:32;12.87;;;11.00;;
31061;SDS011;17724;53.546;9.974;2023-07-29T09:34:32;14.43;;;9.63;;
31061;SDS011;17724;53.546;9.974;2023-07-29T09:38:42;12.83;;;9.60;;
31061;SDS011;17724;53.546;9.974;2023-07-29T09:42:51;11.93;;;9.87;;
31061;SDS011;17724;53.546;9.974;2023-07-29T09:46:53;11.87;;;9.67;;
31061;SDS011;17724;53.546;9.974;2023-07-29T09:50:54;13.00;;;9.90;;
31061;SDS011;17724;53.546;9.974;2023-07-29T09:54:55;11.47;;;9.10;;
31061;SDS011;17724;53.546;9.974;2023-07-29T09:58:56;11.93;;;9.37;;
31061;SDS011;17724;53.546;9.974;2023-07-29T10:02:59;11.77;;;8.77;;
31061;SDS011;17724;53.546;9.974;2023-07-29T10:07:00;10.10;;;7.23;;
31061;SDS011;17724;53.546;9.974;2023-07-29T10:11:02;9.77;;;6.13;;
31061;SDS011;17724;53.546;9.974;2023-07-29T10:15:03;11.30;;;6.27;;
31061;SDS011;17724;53.546;9.974;2023-07-29T10:19:05;12.30;;;8.40;;
31061;SDS011;17724;53.546;9.974;2023-07-29T10:23:07;11.73;;;6.77;;
31061;SDS011;17724;53.546;9.974;2023-07-29T10:27:10;11.57;;;6.80;;
31061;SDS011;17724;53.546;9.974;2023-07-29T10:31:16;11.63;;;7.47;;
31061;SDS011;17724;53.546;9.974;2023-07-29T10:35:17;11.80;;;10.40;;
31061;SDS011;17724;53.546;9.974;2023-07-29T10:39:18;17.47;;;13.63;;
31061;SDS011;17724;53.546;9.974;2023-07-29T10:43:23;41.27;;;37.23;;
31061;SDS011;17724;53.546;9.974;2023-07-29T10:47:31;23.63;;;20.80;;
31061;SDS011;17724;53.546;9.974;2023-07-29T10:51:36;34.37;;;30.87;;
31061;SDS011;17724;53.546;9.974;2023-07-29T10:55:37;15.23;;;11.47;;
31061;SDS011;17724;53.546;9.974;2023-07-29T10:59:38;10.17;;;7.17;;
31061;SDS011;17724;53.546;9.974;2023-07-29T11:03:38;13.00;;;8.23;;
31061;SDS011;17724;53.546;9.974;2023-07-29T11:07:48;15.40;;;12.70;;
31061;SDS011;17724;53.546;9.974;2023-07-29T11:11:50;11.73;;;8.93;;
31061;SDS011;17724;53.546;9.974;2023-07-29T11:15:50;8.37;;;4.30;;
31061;SDS011;17724;53.546;9.974;2023-07-29T11:19:53;11.20;;;5.80;;
31061;SDS011;17724;53.546;9.974;2023-07-29T11:23:56;8.97;;;4.00;;
31061;SDS011;17724;53.546;9.974;2023-07-29T11:27:59;7.63;;;2.90;;
31061;SDS011;17724;53.546;9.974;2023-07-29T11:32:00;9.67;;;4.60;;
31061;SDS011;17724;53.546;9.974;2023-07-29T11:36:00;12.03;;;5.60;;
31061;SDS011;17724;53.546;9.974;2023-07-29T11:40:01;50.03;;;45.67;;
31061;SDS011;17724;53.546;9.974;2023-07-29T11:44:02;10.47;;;6.90;;
31061;SDS011;17724;53.546;9.974;2023-07-29T11:48:03;8.47;;;3.77;;
31061;SDS011;17724;53.546;9.974;2023-07-29T11:52:06;15.57;;;12.10;;
31061;SDS011;17724;53.546;9.974;2023-07-29T11:56:10;12.77;;;10.00;;
31061;SDS011;17724;53.546;9.974;2023-07-29T12:00:13;11.77;;;8.50;;
31061;SDS011;17724;53.546;9.974;2023-07-29T12:04:16;13.00;;;9.07;;
31061;SDS011;17724;53.546;9.974;2023-07-29T12:08:17;9.03;;;5.37;;
31061;SDS011;17724;53.546;9.974;2023-07-29T12:12:18;8.17;;;3.10;;
31061;SDS011;17724;53.546;9.974;2023-07-29T12:16:19;7.97;;;3.77;;
31061;SDS011;17724;53.546;9.974;2023-07-29T12:20:19;11.90;;;3.73;;
31061;SDS011;17724;53.546;9.974;2023-07-29T12:24:22;8.47;;;3.33;;
31061;SDS011;17724;53.546;9.974;2023-07-29T12:28:23;7.67;;;3.30;;
31061;SDS011;17724;53.546;9.974;2023-07-29T12:32:24;8.43;;;3.17;;
31061;SDS011;17724;53.546;9.974;2023-07-29T12:36:48;10.53;;;5.80;;
31061;SDS011;17724;53.546;9.974;2023-07-29T12:40:48;11.43;;;7.33;;
31061;SDS011;17724;53.546;9.974;2023-07-29T12:44:49;6.77;;;2.43;;
31061;SDS011;17724;53.546;9.974;2023-07-29T12:48:49;7.83;;;3.57;;
31061;SDS011;17724;53.546;9.974;2023-07-29T12:52:50;8.73;;;4.27;;
31061;SDS011;17724;53.546;9.974;2023-07-29T12:56:50;8.63;;;4.43;;
31061;SDS011;17724;53.546;9.974;2023-07-29T13:00:51;6.40;;;2.10;;
31061;SDS011;17724;53.546;9.974;2023-07-29T13:04:52;7.43;;;3.27;;
31061;SDS011;17724;53.546;9.974;2023-07-29T13:08:53;6.40;;;2.33;;
31061;SDS011;17724;53.546;9.974;2023-07-29T13:12:53;9.13;;;5.30;;
31061;SDS011;17724;53.546;9.974;2023-07-29T13:16:54;27.73;;;24.87;;
31061;SDS011;17724;53.546;9.974;2023-07-29T13:20:54;12.20;;;9.53;;
31061;SDS011;17724;53.546;9.974;2023-07-29T13:24:55;6.50;;;2.70;;
31061;SDS011;17724;53.546;9.974;2023-07-29T13:28:56;8.40;;;4.53;;
31061;SDS011;17724;53.546;9.974;2023-07-29T13:32:57;7.27;;;3.17;;
31061;SDS011;17724;53.546;9.974;2023-07-29T13:36:57;6.70;;;2.60;;
31061;SDS011;17724;53.546;9.974;2023-07-29T13:40:58;6.20;;;2.30;;
31061;SDS011;17724;53.546;9.974;2023-07-29T13:44:58;5.73;;;1.60;;
31061;SDS011;17724;53.546;9.974;2023-07-29T13:48:59;6.93;;;2.43;;
31061;SDS011;17724;53.546;9.974;2023-07-29T13:52:59;7.70;;;3.53;;
31061;SDS011;17724;53.546;9.974;2023-07-29T13:57:00;9.93;;;6.80;;
31061;SDS011;17724;53.546;9.974;2023-07-29T14:01:00;6.63;;;2.50;;
31061;SDS011;17724;53.546;9.974;2023-07-29T14:05:00;8.53;;;4.60;;
31061;SDS011;17724;53.546;9.974;2023-07-29T14:09:01;17.73;;;14.30;;
31061;SDS011;17724;53.546;9.974;2023-07-29T14:13:02;44.80;;;40.43;;
31061;SDS011;17724;53.546;9.974;2023-07-29T14:17:02;11.90;;;7.43;;
31061;SDS011;17724;53.546;9.974;2023-07-29T14:21:06;7.47;;;4.07;;
31061;SDS011;17724;53.546;9.974;2023-07-29T14:25:07;7.70;;;3.40;;
31061;SDS011;17724;53.546;9.974;2023-07-29T14:29:08;8.23;;;4.20;;
31061;SDS011;17724;53.546;9.974;2023-07-29T14:33:08;10.23;;;4.77;;
31061;SDS011;17724;53.546;9.974;2023-07-29T14:37:09;9.27;;;4.93;;
31061;SDS011;17724;53.546;9.974;2023-07-29T14:41:09;12.20;;;8.90;;
31061;SDS011;17724;53.546;9.974;2023-07-29T14:45:13;26.00;;;20.43;;
31061;SDS011;17724;53.546;9.974;2023-07-29T14:49:14;26.70;;;21.73;;
31061;SDS011;17724;53.546;9.974;2023-07-29T14:53:14;23.10;;;17.13;;
31061;SDS011;17724;53.546;9.974;2023-07-29T14:57:15;25.90;;;22.43;;
31061;SDS011;17724;53.546;9.974;2023-07-29T15:01:17;9.07;;;6.30;;
31061;SDS011;17724;53.546;9.974;2023-07-29T15:05:18;24.27;;;21.67;;
31061;SDS011;17724;53.546;9.974;2023-07-29T15:09:19;31.07;;;26.97;;
31061;SDS011;17724;53.546;9.974;2023-07-29T15:13:19;41.17;;;33.73;;
31061;SDS011;17724;53.546;9.974;2023-07-29T15:17:20;15.63;;;11.90;;
31061;SDS011;17724;53.546;9.974;2023-07-29T15:21:20;11.63;;;8.00;;
31061;SDS011;17724;53.546;9.974;2023-07-29T15:25:21;18.13;;;15.90;;
31061;SDS011;17724;53.546;9.974;2023-07-29T15:29:24;12.30;;;8.37;;
31061;SDS011;17724;53.546;9.974;2023-07-29T15:33:25;22.97;;;16.57;;
31061;SDS011;17724;53.546;9.974;2023-07-29T15:37:26;25.30;;;22.80;;
31061;SDS011;17724;53.546;9.974;2023-07-29T15:41:27;20.83;;;18.73;;
31061;SDS011;17724;53.546;9.974;2023-07-29T15:45:27;11.00;;;4.70;;
31061;SDS011;17724;53.546;9.974;2023-07-29T15:49:28;7.37;;;4.07;;
31061;SDS011;17724;53.546;9.974;2023-07-29T15:53:29;15.77;;;14.17;;
31061;SDS011;17724;53.546;9.974;2023-07-29T15:57:30;12.20;;;7.93;;
31061;SDS011;17724;53.546;9.974;2023-07-29T16:01:30;8.30;;;3.60;;
31061;SDS011;17724;53.546;9.974;2023-07-29T16:05:32;11.70;;;6.90;;
31061;SDS011;17724;53.546;9.974;2023-07-29T16:09:33;7.20;;;3.80;;
31061;SDS011;17724;53.546;9.974;2023-07-29T16:13:33;6.27;;;2.80;;
31061;SDS011;17724;53.546;9.974;2023-07-29T16:17:34;8.67;;;6.10;;
31061;SDS011;17724;53.546;9.974;2023-07-29T16:21:35;15.10;;;11.60;;
31061;SDS011;17724;53.546;9.974;2023-07-29T16:25:36;19.77;;;13.40;;
31061;SDS011;17724;53.546;9.974;2023-07-29T16:29:36;36.57;;;28.10;;
31061;SDS011;17724;53.546;9.974;2023-07-29T16:33:37;87.13;;;74.17;;
31061;SDS011;17724;53.546;9.974;2023-07-29T16:37:37;38.57;;;34.47;;
31061;SDS011;17724;53.546;9.974;2023-07-29T16:41:38;50.43;;;45.03;;
31061;SDS011;17724;53.546;9.974;2023-07-29T16:45:38;33.10;;;29.83;;
31061;SDS011;17724;53.546;9.974;2023-07-29T16:49:39;24.10;;;20.00;;
31061;SDS011;17724;53.546;9.974;2023-07-29T16:53:39;111.13;;;99.77;;
31061;SDS011;17724;53.546;9.974;2023-07-29T16:57:40;100.23;;;89.83;;
31061;SDS011;17724;53.546;9.974;2023-07-29T17:01:40;53.73;;;48.33;;
31061;SDS011;17724;53.546;9.974;2023-07-29T17:05:41;56.83;;;50.63;;
31061;SDS011;17724;53.546;9.974;2023-07-29T17:09:42;58.70;;;53.00;;
31061;SDS011;17724;53.546;9.974;2023-07-29T17:13:45;65.50;;;59.17;;
31061;SDS011;17724;53.546;9.974;2023-07-29T17:17:46;25.00;;;22.47;;
31061;SDS011;17724;53.546;9.974;2023-07-29T17:21:46;45.10;;;40.77;;
31061;SDS011;17724;53.546;9.974;2023-07-29T17:25:47;58.13;;;52.50;;
31061;SDS011;17724;53.546;9.974;2023-07-29T17:29:47;26.23;;;22.23;;
31061;SDS011;17724;53.546;9.974;2023-07-29T17:33:48;29.17;;;26.17;;
31061;SDS011;17724;53.546;9.974;2023-07-29T17:37:48;29.80;;;26.80;;
31061;SDS011;17724;53.546;9.974;2023-07-29T17:41:49;18.47;;;14.50;;
31061;SDS011;17724;53.546;9.974;2023-07-29T17:45:49;65.60;;;59.80;;
31061;SDS011;17724;53.546;9.974;2023-07-29T17:49:50;10.13;;;6.40;;
31061;SDS011;17724;53.546;9.974;2023-07-29T17:53:50;46.87;;;42.17;;
31061;SDS011;17724;53.546;9.974;2023-07-29T17:57:51;45.70;;;37.43;;
31061;SDS011;17724;53.546;9.974;2023-07-29T18:01:51;49.77;;;44.77;;
31061;SDS011;17724;53.546;9.974;2023-07-29T18:05:52;53.57;;;47.97;;
31061;SDS011;17724;53.546;9.974;2023-07-29T18:09:53;11.50;;;7.13;;
31061;SDS011;17724;53.546;9.974;2023-07-29T18:13:53;49.23;;;42.57;;
31061;SDS011;17724;53.546;9.974;2023-07-29T18:17:54;47.73;;;34.77;;
31061;SDS011;17724;53.546;9.974;2023-07-29T18:21:54;53.33;;;43.20;;
31061;SDS011;17724;53.546;9.974;2023-07-29T18:25:55;44.73;;;32.10;;
31061;SDS011;17724;53.546;9.974;2023-07-29T18:29:57;76.53;;;69.00;;
31061;SDS011;17724;53.546;9.974;2023-07-29T18:33:57;38.90;;;35.10;;
31061;SDS011;17724;53.546;9.974;2023-07-29T18:37:58;76.27;;;68.80;;
31061;SDS011;17724;53.546;9.974;2023-07-29T18:41:59;45.33;;;40.77;;
31061;SDS011;17724;53.546;9.974;2023-07-29T18:45:59;61.50;;;53.07;;
31061;SDS011;17724;53.546;9.974;2023-07-29T18:50:00;18.73;;;14.43;;
31061;SDS011;17724;53.546;9.974;2023-07-29T18:54:00;39.43;;;34.03;;
31061;SDS011;17724;53.546;9.974;2023-07-29T18:58:01;35.67;;;30.87;;
31061;SDS011;17724;53.546;9.974;2023-07-29T19:02:02;50.93;;;40.60;;
31061;SDS011;17724;53.546;9.974;2023-07-29T19:06:02;57.83;;;48.57;;
31061;SDS011;17724;53.546;9.974;2023-07-29T19:10:03;19.97;;;17.57;;
31061;SDS011;17724;53.546;9.974;2023-07-29T19:14:04;23.00;;;19.87;;
31061;SDS011;17724;53.546;9.974;2023-07-29T19:18:05;15.60;;;10.73;;
31061;SDS011;17724;53.546;9.974;2023-07-29T19:22:07;22.13;;;19.17;;
31061;SDS011;17724;53.546;9.974;2023-07-29T19:26:07;15.73;;;13.83;;
31061;SDS011;17724;53.546;9.974;2023-07-29T19:30:08;33.27;;;29.10;;
31061;SDS011;17724;53.546;9.974;2023-07-29T19:34:08;24.27;;;20.33;;
31061;SDS011;17724;53.546;9.974;2023-07-29T19:38:09;23.80;;;21.33;;
31061;SDS011;17724;53.546;9.974;2023-07-29T19:42:10;25.47;;;17.07;;
31061;SDS011;17724;53.546;9.974;2023-07-29T19:46:10;15.20;;;9.50;;
31061;SDS011;17724;53.546;9.974;2023-07-29T19:50:11;14.50;;;10.50;;
31061;SDS011;17724;53.546;9.974;2023-07-29T19:54:11;12.10;;;7.40;;
31061;SDS011;17724;53.546;9.974;2023-07-29T19:58:12;43.57;;;36.70;;
31061;SDS011;17724;53.546;9.974;2023-07-29T20:02:12;17.47;;;14.27;;
31061;SDS011;17724;53.546;9.974;2023-07-29T20:06:13;21.00;;;17.13;;
31061;SDS011;17724;53.546;9.974;2023-07-29T20:10:14;15.77;;;10.97;;
31061;SDS011;17724;53.546;9.974;2023-07-29T20:14:14;14.20;;;8.23;;
31061;SDS011;17724;53.546;9.974;2023-07-29T20:18:15;12.20;;;7.70;;
31061;SDS011;17724;53.546;9.974;2023-07-29T20:22:15;16.90;;;14.83;;
31061;SDS011;17724;53.546;9.974;2023-07-29T20:26:16;12.93;;;7.50;;
31061;SDS011;17724;53.546;9.974;2023-07-29T20:30:17;17.10;;;12.30;;
31061;SDS011;17724;53.546;9.974;2023-07-29T20:34:17;11.70;;;6.60;;
31061;SDS011;17724;53.546;9.974;2023-07-29T20:38:18;9.70;;;5.90;;
31061;SDS011;17724;53.546;9.974;2023-07-29T20:42:18;7.10;;;2.80;;
31061;SDS011;17724;53.546;9.974;2023-07-29T20:50:20;9.73;;;5.70;;
31061;SDS011;17724;53.546;9.974;2023-07-29T20:54:21;10.73;;;5.60;;
31061;SDS011;17724;53.546;9.974;2023-07-29T20:58:21;7.90;;;4.23;;
31061;SDS011;17724;53.546;9.974;2023-07-29T21:02:22;10.50;;;5.20;;
31061;SDS011;17724;53.546;9.974;2023-07-29T21:06:22;9.83;;;4.47;;
31061;SDS011;17724;53.546;9.974;2023-07-29T21:10:23;15.67;;;8.67;;
31061;SDS011;17724;53.546;9.974;2023-07-29T21:14:24;17.97;;;11.00;;
31061;SDS011;17724;53.546;9.974;2023-07-29T21:18:25;12.00;;;6.10;;
31061;SDS011;17724;53.546;9.974;2023-07-29T21:22:25;11.47;;;6.10;;
31061;SDS011;17724;53.546;9.974;2023-07-29T21:26:26;13.43;;;10.03;;
31061;SDS011;17724;53.546;9.974;2023-07-29T21:30:26;17.43;;;14.03;;
31061;SDS011;17724;53.546;9.974;2023-07-29T21:34:29;9.77;;;5.67;;
31061;SDS011;17724;53.546;9.974;2023-07-29T21:38:30;9.90;;;6.40;;
31061;SDS011;17724;53.546;9.974;2023-07-29T21:42:30;9.13;;;4.97;;
31061;SDS011;17724;53.546;9.974;2023-07-29T21:46:31;7.53;;;3.10;;
31061;SDS011;17724;53.546;9.974;2023-07-29T21:50:32;6.70;;;3.00;;
31061;SDS011;17724;53.546;9.974;2023-07-29T21:54:32;6.63;;;2.60;;
31061;SDS011;17724;53.546;9.974;2023-07-29T21:58:33;6.83;;;2.70;;
31061;SDS011;17724;53.546;9.974;2023-07-29T22:02:34;6.03;;;2.63;;
31061;SDS011;17724;53.546;9.974;2023-07-29T22:06:34;7.27;;;2.90;;
31061;SDS011;17724;53.546;9.974;2023-07-29T22:10:38;6.90;;;2.83;;
31061;SDS011;17724;53.546;9.974;2023-07-29T22:14:39;6.37;;;2.90;;
31061;SDS011;17724;53.546;9.974;2023-07-29T22:18:40;7.30;;;3.60;;
31061;SDS011;17724;53.546;9.974;2023-07-29T22:22:41;7.70;;;2.90;;
31061;SDS011;17724;53.546;9.974;2023-07-29T22:26:41;8.37;;;3.57;;
31061;SDS011;17724;53.546;9.974;2023-07-29T22:30:46;8.30;;;3.07;;
31061;SDS011;17724;53.546;9.974;2023-07-29T22:34:46;6.67;;;2.77;;
31061;SDS011;17724;53.546;9.974;2023-07-29T22:38:47;7.10;;;2.60;;
31061;SDS011;17724;53.546;9.974;2023-07-29T22:42:47;7.33;;;3.20;;
31061;SDS011;17724;53.546;9.974;2023-07-29T22:46:47;7.90;;;3.23;;
31061;SDS011;17724;53.546;9.974;2023-07-29T22:50:48;6.20;;;3.00;;
31061;SDS011;17724;53.546;9.974;2023-07-29T22:54:49;7.57;;;3.53;;
31061;SDS011;17724;53.546;9.974;2023-07-29T22:58:49;6.60;;;3.57;;
31061;SDS011;17724;53.546;9.974;2023-07-29T23:02:50;8.77;;;3.43;;
31061;SDS011;17724;53.546;9.974;2023-07-29T23:06:50;8.80;;;3.90;;
31061;SDS011;17724;53.546;9.974;2023-07-29T23:10:51;8.90;;;3.20;;
31061;SDS011;17724;53.546;9.974;2023-07-29T23:14:51;7.40;;;3.60;;
31061;SDS011;17724;53.546;9.974;2023-07-29T23:18:51;8.30;;;4.10;;
31061;SDS011;17724;53.546;9.974;2023-07-29T23:22:52;7.60;;;4.17;;
31061;SDS011;17724;53.546;9.974;2023-07-29T23:26:53;9.07;;;3.83;;
31061;SDS011;17724;53.546;9.974;2023-07-29T23:30:56;13.00;;;4.03;;
31061;SDS011;17724;53.546;9.974;2023-07-29T23:34:58;7.30;;;4.07;;
31061;SDS011;17724;53.546;9.974;2023-07-29T23:38:58;7.60;;;3.40;;
31061;SDS011;17724;53.546;9.974;2023-07-29T23:42:59;7.00;;;3.80;;
31061;SDS011;17724;53.546;9.974;2023-07-29T23:46:59;7.97;;;3.70;;
31061;SDS011;17724;53.546;9.974;2023-07-29T23:51:00;12.93;;;4.10;;
31061;SDS011;17724;53.546;9.974;2023-07-29T23:55:03;6.63;;;3.13;;
31061;SDS011;17724;53.546;9.974;2023-07-29T23:59:04;7.90;;;3.70;;
